Time;durP1;ratioP1;P1;durP2;ratioP2;P2;SDS_P1;SDS_P2;PMS_P1;PMS_P2;Temp;Humidity;BMP_temperature;BMP_pressure;BME280_temperature;BME280_humidity;BME280_pressure;Samples;Min_cycle;Max_cycle;Signal;HPM_P1;HPM_P2
2024/01/30 00:01:58;;;;;;;16.45;8.40;;;;;;;-148.88;100.00;-17125.47;5074440;28;20043;-86
2024/01/30 00:04:23;;;;;;;18.05;8.13;;;;;;;-148.88;100.00;-17125.47;5073665;28;20016;-85
2024/01/30 00:06:57;;;;;;;16.83;9.13;;;;;;;-148.88;100.00;-17125.47;5073599;28;20020;-84
2024/01/30 00:09:26;;;;;;;16.15;8.27;;;;;;;-148.88;100.00;-17125.47;5073790;28;20372;-85
2024/01/30 00:11:54;;;;;;;19.10;8.70;;;;;;;-148.88;100.00;-17125.47;5073450;28;20082;-86
2024/01/30 00:14:23;;;;;;;14.18;8.05;;;;;;;-148.88;100.00;-17125.47;5075805;28;20379;-86
2024/01/30 00:16:48;;;;;;;19.65;8.48;;;;;;;-148.88;100.00;-17125.47;5075368;28;20031;-86
2024/01/30 00:19:14;;;;;;;17.25;9.07;;;;;;;-148.88;100.00;-17125.47;5075736;28;20147;-85
2024/01/30 00:21:39;;;;;;;18.27;9.25;;;;;;;-148.88;100.00;-17125.47;5074054;28;20135;-86
2024/01/30 00:24:05;;;;;;;16.77;8.00;;;;;;;-148.88;100.00;-17125.47;5073872;28;20107;-86
2024/01/30 00:26:30;;;;;;;15.77;8.52;;;;;;;-148.88;100.00;-17125.47;5073031;28;20390;-85
2024/01/30 00:28:55;;;;;;;17.33;8.35;;;;;;;-148.88;100.00;-17125.47;5073737;28;20394;-86
2024/01/30 00:31:21;;;;;;;16.35;8.38;;;;;;;-148.88;100.00;-17125.47;5072756;28;20048;-85
2024/01/30 00:33:46;;;;;;;14.65;7.93;;;;;;;-148.88;100.00;-17125.47;5072356;28;20470;-85
2024/01/30 00:36:11;;;;;;;18.10;8.98;;;;;;;-148.88;100.00;-17125.47;5072550;28;20021;-86
2024/01/30 00:38:40;;;;;;;15.43;8.30;;;;;;;-148.88;100.00;-17125.47;5073163;28;20024;-85
2024/01/30 00:41:07;;;;;;;16.10;7.72;;;;;;;-148.88;100.00;-17125.47;5074759;28;20028;-86
2024/01/30 00:43:33;;;;;;;15.07;8.20;;;;;;;-148.88;100.00;-17125.47;5073565;28;20040;-85
2024/01/30 00:45:59;;;;;;;15.88;7.97;;;;;;;-148.88;100.00;-17125.47;5074073;28;20012;-86
2024/01/30 00:48:24;;;;;;;17.92;9.13;;;;;;;-148.88;100.00;-17125.47;5075030;28;20104;-86
2024/01/30 00:50:52;;;;;;;17.23;9.45;;;;;;;-148.88;100.00;-17125.47;5074425;28;20030;-86
2024/01/30 00:53:18;;;;;;;16.45;8.38;;;;;;;-148.88;100.00;-17125.47;5073867;28;20024;-86
2024/01/30 00:55:43;;;;;;;20.35;8.88;;;;;;;-148.88;100.00;-17125.47;5072102;28;20074;-86
2024/01/30 00:58:09;;;;;;;17.50;8.75;;;;;;;-148.88;100.00;-17125.47;5072563;28;20037;-86
2024/01/30 01:00:34;;;;;;;16.27;8.82;;;;;;;-148.88;100.00;-17125.47;5073482;28;20107;-86
2024/01/30 01:02:59;;;;;;;18.40;9.23;;;;;;;-148.88;100.00;-17125.47;5073702;28;20103;-86
2024/01/30 01:05:25;;;;;;;17.15;8.57;;;;;;;-148.88;100.00;-17125.47;5072437;28;20425;-86
2024/01/30 01:07:51;;;;;;;19.30;8.98;;;;;;;-148.88;100.00;-17125.47;5073222;28;20032;-86
2024/01/30 01:10:17;;;;;;;15.15;8.65;;;;;;;-148.88;100.00;-17125.47;5072026;28;20055;-86
2024/01/30 01:12:43;;;;;;;16.58;8.98;;;;;;;-148.88;100.00;-17125.47;5072366;28;20024;-86
2024/01/30 01:15:09;;;;;;;16.70;8.77;;;;;;;-148.88;100.00;-17125.47;5073481;28;20029;-86
2024/01/30 01:17:36;;;;;;;20.08;8.57;;;;;;;-148.88;100.00;-17125.47;5071952;28;20403;-86
2024/01/30 01:20:02;;;;;;;16.63;8.77;;;;;;;-148.88;100.00;-17125.47;5073100;28;20107;-86
2024/01/30 01:22:27;;;;;;;17.40;8.77;;;;;;;-148.88;100.00;-17125.47;5071921;28;20087;-86
2024/01/30 01:24:53;;;;;;;19.52;9.85;;;;;;;-148.88;100.00;-17125.47;5072638;28;20024;-86
2024/01/30 01:27:18;;;;;;;23.30;10.38;;;;;;;-148.88;100.00;-17125.47;5071939;28;20066;-84
2024/01/30 01:29:45;;;;;;;21.08;9.23;;;;;;;-148.88;100.00;-17125.47;5072121;28;20024;-86
2024/01/30 01:32:10;;;;;;;20.05;9.82;;;;;;;-148.88;100.00;-17125.47;5073350;28;20066;-86
2024/01/30 01:34:36;;;;;;;16.27;8.90;;;;;;;-148.88;100.00;-17125.47;5072164;28;20032;-86
2024/01/30 01:37:01;;;;;;;18.17;9.90;;;;;;;-148.88;100.00;-17125.47;5072507;28;20111;-86
2024/01/30 01:39:26;;;;;;;17.60;9.50;;;;;;;-148.88;100.00;-17125.47;5071920;28;20490;-86
2024/01/30 01:41:52;;;;;;;19.55;9.50;;;;;;;-148.88;100.00;-17125.47;5072998;28;20025;-86
2024/01/30 01:44:18;;;;;;;18.15;9.40;;;;;;;-148.88;100.00;-17125.47;5072260;28;20054;-86
2024/01/30 01:46:44;;;;;;;19.10;9.95;;;;;;;-148.88;100.00;-17125.47;5072167;28;20028;-87
2024/01/30 01:49:09;;;;;;;19.95;9.52;;;;;;;-148.88;100.00;-17125.47;5071673;28;20029;-85
2024/01/30 01:51:36;;;;;;;17.20;9.13;;;;;;;-148.88;100.00;-17125.47;5071632;28;20074;-86
2024/01/30 01:54:05;;;;;;;19.67;8.98;;;;;;;-148.88;100.00;-17125.47;5071755;28;20048;-86
2024/01/30 01:56:33;;;;;;;16.70;9.68;;;;;;;-148.88;100.00;-17125.47;5071581;28;20033;-86
2024/01/30 01:59:07;;;;;;;19.30;8.68;;;;;;;-148.88;100.00;-17125.47;5072800;28;20059;-86
2024/01/30 02:01:33;;;;;;;15.15;8.73;;;;;;;-148.88;100.00;-17125.47;5072470;28;20071;-85
2024/01/30 02:03:59;;;;;;;17.23;9.40;;;;;;;-148.88;100.00;-17125.47;5073523;28;20026;-85
2024/01/30 02:06:26;;;;;;;15.85;8.60;;;;;;;-148.88;100.00;-17125.47;5075184;28;20052;-86
2024/01/30 02:08:54;;;;;;;18.33;8.80;;;;;;;-148.88;100.00;-17125.47;5075425;28;20024;-85
2024/01/30 02:11:20;;;;;;;20.42;9.48;;;;;;;-148.88;100.00;-17125.47;5076816;28;20026;-86
2024/01/30 02:13:46;;;;;;;16.60;8.93;;;;;;;-148.88;100.00;-17125.47;5076060;28;20029;-85
2024/01/30 02:16:11;;;;;;;18.60;9.40;;;;;;;-148.88;100.00;-17125.47;5074951;28;20094;-87
2024/01/30 02:18:41;;;;;;;15.77;8.73;;;;;;;-148.88;100.00;-17125.47;5076577;28;20027;-85
2024/01/30 02:21:07;;;;;;;19.05;9.88;;;;;;;-148.88;100.00;-17125.47;5075849;28;20031;-85
2024/01/30 02:23:34;;;;;;;21.50;9.93;;;;;;;-148.88;100.00;-17125.47;5075378;28;20111;-84
2024/01/30 02:25:59;;;;;;;20.70;9.07;;;;;;;-148.88;100.00;-17125.47;5075667;28;20021;-85
2024/01/30 02:28:25;;;;;;;27.05;9.43;;;;;;;-148.88;100.00;-17125.47;5076727;28;20043;-86
2024/01/30 02:30:50;;;;;;;19.83;9.90;;;;;;;-148.88;100.00;-17125.47;5075349;28;20047;-85
2024/01/30 02:33:15;;;;;;;18.25;8.88;;;;;;;-148.88;100.00;-17125.47;5075473;28;20074;-85
2024/01/30 02:35:41;;;;;;;18.10;9.18;;;;;;;-148.88;100.00;-17125.47;5076249;28;20531;-84
2024/01/30 02:38:06;;;;;;;19.65;9.93;;;;;;;-148.88;100.00;-17125.47;5076511;28;20039;-86
2024/01/30 02:40:32;;;;;;;21.17;9.90;;;;;;;-148.88;100.00;-17125.47;5075398;28;20054;-85
2024/01/30 02:43:02;;;;;;;21.15;10.00;;;;;;;-148.88;100.00;-17125.47;5076821;28;20066;-85
2024/01/30 02:45:28;;;;;;;19.17;9.68;;;;;;;-148.88;100.00;-17125.47;5075006;28;20024;-84
2024/01/30 02:47:53;;;;;;;18.60;9.27;;;;;;;-148.88;100.00;-17125.47;5075810;28;20024;-85
2024/01/30 02:50:19;;;;;;;18.52;9.05;;;;;;;-148.88;100.00;-17125.47;5074325;28;20111;-83
2024/01/30 02:52:44;;;;;;;19.45;9.00;;;;;;;-148.88;100.00;-17125.47;5074361;28;20506;-84
2024/01/30 02:55:10;;;;;;;18.65;9.90;;;;;;;-148.88;100.00;-17125.47;5075717;28;20021;-85
2024/01/30 02:57:36;;;;;;;22.02;9.90;;;;;;;-148.88;100.00;-17125.47;5075961;28;20459;-85
2024/01/30 03:00:01;;;;;;;16.00;9.20;;;;;;;-148.88;100.00;-17125.47;5075105;28;20028;-85
2024/01/30 03:02:26;;;;;;;18.23;9.13;;;;;;;-148.88;100.00;-17125.47;5074548;28;20027;-85
2024/01/30 03:04:52;;;;;;;19.02;10.20;;;;;;;-148.88;100.00;-17125.47;5074867;28;20048;-84
2024/01/30 03:07:17;;;;;;;18.05;9.55;;;;;;;-148.88;100.00;-17125.47;5074568;28;20116;-85
2024/01/30 03:09:43;;;;;;;16.92;8.60;;;;;;;-148.88;100.00;-17125.47;5075799;28;20360;-85
2024/01/30 03:12:09;;;;;;;18.70;9.00;;;;;;;-148.88;100.00;-17125.47;5074350;28;20044;-85
2024/01/30 03:14:35;;;;;;;16.80;8.77;;;;;;;-148.88;100.00;-17125.47;5073752;28;20514;-85
2024/01/30 03:17:00;;;;;;;20.35;9.52;;;;;;;-148.88;100.00;-17125.47;5075805;28;20028;-86
2024/01/30 03:19:25;;;;;;;21.52;9.98;;;;;;;-148.88;100.00;-17125.47;5074151;28;20063;-85
2024/01/30 03:21:51;;;;;;;20.85;9.52;;;;;;;-148.88;100.00;-17125.47;5073868;28;20025;-86
2024/01/30 03:24:17;;;;;;;20.83;9.75;;;;;;;-148.88;100.00;-17125.47;5073812;28;20048;-85
2024/01/30 03:26:42;;;;;;;18.05;9.23;;;;;;;-148.88;100.00;-17125.47;5075133;28;20024;-84
2024/01/30 03:29:07;;;;;;;16.63;8.82;;;;;;;-148.88;100.00;-17125.47;5075140;28;20033;-84
2024/01/30 03:31:35;;;;;;;16.15;8.23;;;;;;;-148.88;100.00;-17125.47;5074525;28;20052;-85
2024/01/30 03:34:01;;;;;;;20.75;9.18;;;;;;;-148.88;100.00;-17125.47;5075191;28;20047;-85
2024/01/30 03:36:27;;;;;;;19.63;8.75;;;;;;;-148.88;100.00;-17125.47;5075336;28;20028;-85
2024/01/30 03:38:53;;;;;;;18.90;9.52;;;;;;;-148.88;100.00;-17125.47;5074219;28;20386;-84
2024/01/30 03:41:18;;;;;;;18.35;8.15;;;;;;;-148.88;100.00;-17125.47;5075079;28;20478;-85
2024/01/30 03:43:44;;;;;;;18.75;9.98;;;;;;;-148.88;100.00;-17125.47;5075415;28;20047;-85
2024/01/30 03:46:12;;;;;;;14.57;8.50;;;;;;;-148.88;100.00;-17125.47;5075523;28;20489;-84
2024/01/30 03:48:37;;;;;;;17.88;8.90;;;;;;;-148.88;100.00;-17125.47;5074433;28;20463;-83
2024/01/30 03:51:03;;;;;;;19.42;9.90;;;;;;;-148.88;100.00;-17125.47;5073671;28;20028;-86
2024/01/30 03:53:29;;;;;;;18.92;9.23;;;;;;;-148.88;100.00;-17125.47;5074634;28;20021;-85
2024/01/30 03:55:54;;;;;;;18.80;9.43;;;;;;;-148.88;100.00;-17125.47;5074996;28;20056;-85
2024/01/30 03:58:19;;;;;;;21.10;10.05;;;;;;;-148.88;100.00;-17125.47;5074424;28;20031;-86
2024/01/30 04:00:44;;;;;;;21.20;10.23;;;;;;;-148.88;100.00;-17125.47;5074534;28;20031;-84
2024/01/30 04:03:10;;;;;;;19.10;10.00;;;;;;;-148.88;100.00;-17125.47;5073118;28;20081;-84
2024/01/30 04:05:35;;;;;;;21.17;10.45;;;;;;;-148.88;100.00;-17125.47;5073549;28;20012;-85
2024/01/30 04:08:00;;;;;;;19.83;10.38;;;;;;;-148.88;100.00;-17125.47;5073645;28;20463;-85
2024/01/30 04:10:26;;;;;;;21.05;10.35;;;;;;;-148.88;100.00;-17125.47;5074673;28;20442;-85
2024/01/30 04:12:51;;;;;;;21.25;9.60;;;;;;;-148.88;100.00;-17125.47;5074389;28;20024;-85
2024/01/30 04:15:17;;;;;;;20.67;10.05;;;;;;;-148.88;100.00;-17125.47;5073261;28;20020;-85
2024/01/30 04:17:43;;;;;;;22.10;10.60;;;;;;;-148.88;100.00;-17125.47;5073287;28;20082;-84
2024/01/30 04:20:14;;;;;;;20.70;10.68;;;;;;;-148.88;100.00;-17125.47;5072970;28;20025;-85
2024/01/30 04:22:39;;;;;;;27.15;10.68;;;;;;;-148.88;100.00;-17125.47;5073058;28;20430;-84
2024/01/30 04:25:05;;;;;;;21.67;10.15;;;;;;;-148.88;100.00;-17125.47;5074180;28;20059;-85
2024/01/30 04:27:30;;;;;;;19.08;10.73;;;;;;;-148.88;100.00;-17125.47;5072520;28;20479;-85
2024/01/30 04:29:55;;;;;;;24.90;10.82;;;;;;;-148.88;100.00;-17125.47;5072467;28;20029;-85
2024/01/30 04:32:21;;;;;;;22.55;10.55;;;;;;;-148.88;100.00;-17125.47;5073727;28;20023;-85
2024/01/30 04:34:46;;;;;;;26.25;11.00;;;;;;;-148.88;100.00;-17125.47;5072575;28;20021;-85
2024/01/30 04:37:11;;;;;;;26.95;11.55;;;;;;;-148.88;100.00;-17125.47;5072358;28;20031;-85
2024/01/30 04:39:37;;;;;;;28.23;11.63;;;;;;;-148.88;100.00;-17125.47;5072926;28;20501;-85
2024/01/30 04:42:02;;;;;;;19.75;9.18;;;;;;;-148.88;100.00;-17125.47;5074572;28;20153;-85
2024/01/30 04:44:28;;;;;;;26.75;11.93;;;;;;;-148.88;100.00;-17125.47;5073911;28;20099;-84
2024/01/30 04:46:53;;;;;;;21.15;10.05;;;;;;;-148.88;100.00;-17125.47;5073821;28;20051;-85
2024/01/30 04:49:18;;;;;;;25.20;11.80;;;;;;;-148.88;100.00;-17125.47;5073593;28;20028;-85
2024/01/30 04:51:44;;;;;;;20.98;10.35;;;;;;;-148.88;100.00;-17125.47;5074163;28;20027;-85
2024/01/30 04:54:09;;;;;;;27.13;11.48;;;;;;;-148.88;100.00;-17125.47;5072354;28;20395;-84
2024/01/30 04:56:35;;;;;;;21.90;10.68;;;;;;;-148.88;100.00;-17125.47;5072677;28;20121;-85
2024/01/30 04:59:02;;;;;;;26.83;11.50;;;;;;;-148.88;100.00;-17125.47;5073958;28;20125;-85
2024/01/30 05:01:28;;;;;;;26.92;11.73;;;;;;;-148.88;100.00;-17125.47;5072641;28;20052;-85
2024/01/30 05:03:53;;;;;;;28.40;11.68;;;;;;;-148.88;100.00;-17125.47;5073233;28;20024;-86
2024/01/30 05:06:27;;;;;;;21.77;10.60;;;;;;;-148.88;100.00;-17125.47;5072667;28;20016;-85
2024/01/30 05:08:53;;;;;;;24.58;10.23;;;;;;;-148.88;100.00;-17125.47;5073376;28;20052;-84
2024/01/30 05:11:19;;;;;;;26.38;10.38;;;;;;;-148.88;100.00;-17125.47;5073301;28;20093;-84
2024/01/30 05:13:44;;;;;;;22.83;10.90;;;;;;;-148.88;100.00;-17125.47;5073423;28;20021;-85
2024/01/30 05:16:10;;;;;;;21.58;10.13;;;;;;;-148.88;100.00;-17125.47;5073713;28;20534;-85
2024/01/30 05:18:35;;;;;;;22.75;10.50;;;;;;;-148.88;100.00;-17125.47;5072351;28;20090;-85
2024/01/30 05:21:02;;;;;;;25.98;11.02;;;;;;;-148.88;100.00;-17125.47;5073825;28;20497;-85
2024/01/30 05:23:27;;;;;;;25.92;12.48;;;;;;;-148.88;100.00;-17125.47;5073519;28;20078;-85
2024/01/30 05:25:53;;;;;;;21.77;9.90;;;;;;;-148.88;100.00;-17125.47;5073489;28;20028;-84
2024/01/30 05:28:18;;;;;;;24.15;10.70;;;;;;;-148.88;100.00;-17125.47;5073765;28;20032;-85
2024/01/30 05:30:43;;;;;;;22.52;11.25;;;;;;;-148.88;100.00;-17125.47;5073572;28;20047;-86
2024/01/30 05:33:09;;;;;;;21.13;10.98;;;;;;;-148.88;100.00;-17125.47;5075094;28;20024;-85
2024/01/30 05:35:34;;;;;;;24.52;11.68;;;;;;;-148.88;100.00;-17125.47;5074430;28;20027;-84
2024/01/30 05:38:00;;;;;;;24.05;11.25;;;;;;;-148.88;100.00;-17125.47;5075324;28;20031;-84
2024/01/30 05:40:25;;;;;;;22.38;10.52;;;;;;;-148.88;100.00;-17125.47;5078621;28;20078;-85
2024/01/30 05:42:51;;;;;;;25.95;11.30;;;;;;;-148.88;100.00;-17125.47;5077605;28;20028;-84
2024/01/30 05:45:16;;;;;;;23.55;10.52;;;;;;;-148.88;100.00;-17125.47;5077463;28;20016;-85
2024/01/30 05:47:41;;;;;;;22.33;10.10;;;;;;;-148.88;100.00;-17125.47;5078096;28;20490;-85
2024/01/30 05:50:07;;;;;;;22.40;10.93;;;;;;;-148.88;100.00;-17125.47;5077286;28;20024;-85
2024/01/30 05:52:32;;;;;;;21.08;9.60;;;;;;;-148.88;100.00;-17125.47;5078205;28;20081;-85
2024/01/30 05:54:58;;;;;;;26.52;11.30;;;;;;;-148.88;100.00;-17125.47;5076381;28;20024;-86
2024/01/30 05:57:23;;;;;;;20.55;10.55;;;;;;;-148.88;100.00;-17125.47;5077626;28;20032;-85
2024/01/30 05:59:48;;;;;;;23.17;10.82;;;;;;;-148.88;100.00;-17125.47;5076355;28;20447;-84
2024/01/30 06:02:14;;;;;;;23.92;10.00;;;;;;;-148.88;100.00;-17125.47;5077980;28;20101;-85
2024/01/30 06:04:40;;;;;;;22.85;11.45;;;;;;;-148.88;100.00;-17125.47;5078387;28;20033;-85
2024/01/30 06:07:06;;;;;;;21.88;10.65;;;;;;;-148.88;100.00;-17125.47;5077038;28;20032;-85
2024/01/30 06:09:31;;;;;;;22.25;10.05;;;;;;;-148.88;100.00;-17125.47;5077075;28;20024;-85
2024/01/30 06:11:57;;;;;;;21.55;10.52;;;;;;;-148.88;100.00;-17125.47;5075629;28;20536;-84
2024/01/30 06:14:22;;;;;;;25.75;9.73;;;;;;;-148.88;100.00;-17125.47;5076456;28;20054;-85
2024/01/30 06:16:48;;;;;;;21.63;9.57;;;;;;;-148.88;100.00;-17125.47;5075424;28;20070;-85
2024/01/30 06:19:13;;;;;;;21.63;9.90;;;;;;;-148.88;100.00;-17125.47;5075939;28;20475;-85
2024/01/30 06:21:38;;;;;;;21.10;9.15;;;;;;;-148.88;100.00;-17125.47;5076192;28;20021;-84
2024/01/30 06:24:04;;;;;;;19.90;9.48;;;;;;;-148.88;100.00;-17125.47;5075933;28;20027;-84
2024/01/30 06:26:30;;;;;;;19.55;9.27;;;;;;;-148.88;100.00;-17125.47;5076354;28;20024;-85
2024/01/30 06:28:55;;;;;;;17.08;9.18;;;;;;;-148.88;100.00;-17125.47;5076756;28;20482;-85
2024/01/30 06:31:21;;;;;;;21.80;9.95;;;;;;;-148.88;100.00;-17125.47;5077652;28;20082;-85
2024/01/30 06:33:47;;;;;;;25.40;10.38;;;;;;;-148.88;100.00;-17125.47;5077423;28;20048;-84
2024/01/30 06:36:12;;;;;;;19.58;9.18;;;;;;;-148.88;100.00;-17125.47;5078887;28;20032;-84
2024/01/30 06:38:38;;;;;;;18.95;8.88;;;;;;;-148.88;100.00;-17125.47;5076371;28;20101;-84
2024/01/30 06:41:03;;;;;;;22.13;8.80;;;;;;;-148.88;100.00;-17125.47;5075646;28;20048;-84
2024/01/30 06:43:29;;;;;;;18.58;7.75;;;;;;;-148.88;100.00;-17125.47;5074914;28;20091;-84
2024/01/30 06:45:54;;;;;;;21.92;9.38;;;;;;;-148.88;100.00;-17125.47;5074757;28;20020;-84
2024/01/30 06:48:20;;;;;;;18.75;8.40;;;;;;;-148.88;100.00;-17125.47;5074396;28;20111;-83
2024/01/30 06:50:46;;;;;;;16.95;8.20;;;;;;;-148.88;100.00;-17125.47;5074775;28;20035;-84
2024/01/30 06:53:11;;;;;;;16.90;8.52;;;;;;;-148.88;100.00;-17125.47;5075232;28;20025;-84
2024/01/30 06:55:37;;;;;;;15.88;8.52;;;;;;;-148.88;100.00;-17125.47;5070681;28;20029;-84
2024/01/30 06:58:02;;;;;;;15.18;7.55;;;;;;;-148.88;100.00;-17125.47;5073556;28;20037;-84
2024/01/30 07:00:28;;;;;;;17.27;7.28;;;;;;;-148.88;100.00;-17125.47;5074554;28;20032;-86
2024/01/30 07:02:53;;;;;;;13.95;7.78;;;;;;;-148.88;100.00;-17125.47;5073422;28;20047;-85
2024/01/30 07:05:19;;;;;;;27.08;7.47;;;;;;;-148.88;100.00;-17125.47;5073437;28;20028;-87
2024/01/30 07:07:44;;;;;;;14.02;7.38;;;;;;;-148.88;100.00;-17125.47;5073158;28;20028;-86
2024/01/30 07:10:10;;;;;;;14.35;6.80;;;;;;;-148.88;100.00;-17125.47;5073624;28;20024;-85
2024/01/30 07:12:35;;;;;;;13.85;7.38;;;;;;;-148.88;100.00;-17125.47;5075689;28;20067;-85
2024/01/30 07:15:02;;;;;;;14.95;7.43;;;;;;;-148.88;100.00;-17125.47;5073992;28;20028;-85
2024/01/30 07:17:27;;;;;;;13.43;6.60;;;;;;;-148.88;100.00;-17125.47;5072774;28;20475;-85
2024/01/30 07:19:55;;;;;;;12.20;6.95;;;;;;;-148.88;100.00;-17125.47;5072080;28;20082;-86
2024/01/30 07:22:21;;;;;;;12.57;6.72;;;;;;;-148.88;100.00;-17125.47;5071704;28;20074;-86
2024/01/30 07:24:48;;;;;;;14.18;6.97;;;;;;;-148.88;100.00;-17125.47;5071967;28;20025;-88
2024/01/30 07:27:17;;;;;;;18.70;8.05;;;;;;;-148.88;100.00;-17125.47;5071961;28;20929;-86
2024/01/30 07:29:46;;;;;;;13.73;7.60;;;;;;;-148.88;100.00;-17125.47;5071544;28;20036;-85
2024/01/30 07:32:12;;;;;;;16.85;8.15;;;;;;;-148.88;100.00;-17125.47;5071741;28;20024;-85
2024/01/30 07:34:37;;;;;;;17.58;8.88;;;;;;;-148.88;100.00;-17125.47;5071772;28;20036;-86
2024/01/30 07:37:03;;;;;;;16.38;8.48;;;;;;;-148.88;100.00;-17125.47;5077942;28;20020;-87
2024/01/30 07:39:28;;;;;;;22.00;9.27;;;;;;;-148.88;100.00;-17125.47;5072212;28;20024;-85
2024/01/30 07:41:54;;;;;;;17.33;8.85;;;;;;;-148.88;100.00;-17125.47;5072776;28;20471;-86
2024/01/30 07:44:20;;;;;;;16.83;8.90;;;;;;;-148.88;100.00;-17125.47;5071846;28;20032;-86
2024/01/30 07:46:45;;;;;;;24.08;9.02;;;;;;;-148.88;100.00;-17125.47;5071869;28;20398;-86
2024/01/30 07:49:11;;;;;;;18.90;7.75;;;;;;;-148.88;100.00;-17125.47;5072299;28;20478;-86
2024/01/30 07:51:36;;;;;;;23.00;9.07;;;;;;;-148.88;100.00;-17125.47;5070982;28;20059;-86
2024/01/30 07:54:02;;;;;;;17.23;8.50;;;;;;;-148.88;100.00;-17125.47;5070766;28;20044;-86
2024/01/30 08:03:11;;;;;;;12.20;6.45;;;;;;;-148.88;100.00;-17125.47;5072951;28;20051;-87
2024/01/30 08:05:36;;;;;;;14.77;6.65;;;;;;;-148.88;100.00;-17125.47;5072050;28;20013;-84
2024/01/30 08:08:02;;;;;;;14.45;7.43;;;;;;;-148.88;100.00;-17125.47;5071733;28;20032;-86
2024/01/30 08:10:27;;;;;;;16.13;6.32;;;;;;;-148.88;100.00;-17125.47;5072551;28;20086;-87
2024/01/30 08:12:52;;;;;;;14.18;7.53;;;;;;;-148.88;100.00;-17125.47;5071954;28;20032;-86
2024/01/30 08:15:18;;;;;;;13.68;6.97;;;;;;;-148.88;100.00;-17125.47;5071325;28;20020;-86
2024/01/30 08:17:44;;;;;;;13.05;6.32;;;;;;;-148.88;100.00;-17125.47;5071451;28;20458;-87
2024/01/30 08:20:13;;;;;;;15.25;6.47;;;;;;;-148.88;100.00;-17125.47;5071031;28;20024;-84
2024/01/30 08:22:40;;;;;;;11.52;6.25;;;;;;;-148.88;100.00;-17125.47;5070961;28;20029;-87
2024/01/30 08:25:06;;;;;;;12.60;6.40;;;;;;;-148.88;100.00;-17125.47;5071159;28;20402;-87
2024/01/30 08:27:31;;;;;;;13.55;7.13;;;;;;;-148.88;100.00;-17125.47;5072093;28;20020;-87
2024/01/30 08:29:56;;;;;;;11.38;5.63;;;;;;;-148.88;100.00;-17125.47;5074175;28;20032;-86
2024/01/30 08:32:23;;;;;;;10.07;5.35;;;;;;;-148.88;100.00;-17125.47;5073694;28;20425;-87
2024/01/30 08:34:52;;;;;;;11.35;5.72;;;;;;;-148.88;100.00;-17125.47;5073458;28;20024;-86
2024/01/30 08:37:17;;;;;;;11.27;5.22;;;;;;;-148.88;100.00;-17125.47;5073611;28;20020;-87
2024/01/30 08:39:44;;;;;;;10.48;5.80;;;;;;;-148.88;100.00;-17125.47;5073567;28;20046;-88
2024/01/30 08:42:10;;;;;;;10.43;5.57;;;;;;;-148.88;100.00;-17125.47;5072235;28;20032;-87
2024/01/30 08:44:35;;;;;;;12.23;5.93;;;;;;;-148.88;100.00;-17125.47;5072057;28;20017;-88
2024/01/30 08:47:01;;;;;;;11.55;5.88;;;;;;;-148.88;100.00;-17125.47;5072845;28;20027;-87
2024/01/30 08:49:26;;;;;;;13.45;6.00;;;;;;;-148.88;100.00;-17125.47;5073456;28;20024;-88
2024/01/30 08:51:52;;;;;;;13.75;5.93;;;;;;;-148.88;100.00;-17125.47;5073322;28;20426;-88
2024/01/30 08:54:17;;;;;;;13.65;6.00;;;;;;;-148.88;100.00;-17125.47;5072062;28;20120;-87
2024/01/30 08:56:42;;;;;;;12.27;6.78;;;;;;;-148.88;100.00;-17125.47;5073888;28;20475;-88
2024/01/30 08:59:08;;;;;;;11.98;5.90;;;;;;;-148.88;100.00;-17125.47;5073431;28;20035;-88
2024/01/30 09:01:34;;;;;;;11.85;6.03;;;;;;;-148.88;100.00;-17125.47;5072951;28;20421;-86
2024/01/30 09:03:59;;;;;;;10.52;5.78;;;;;;;-148.88;100.00;-17125.47;5071984;28;20436;-87
2024/01/30 09:06:27;;;;;;;11.20;5.43;;;;;;;-148.88;100.00;-17125.47;5072685;28;20025;-87
2024/01/30 09:08:53;;;;;;;12.82;5.72;;;;;;;-148.88;100.00;-17125.47;5072129;28;20059;-88
2024/01/30 09:11:18;;;;;;;11.43;5.97;;;;;;;-148.88;100.00;-17125.47;5071797;28;20056;-87
2024/01/30 09:13:44;;;;;;;13.43;6.07;;;;;;;-148.88;100.00;-17125.47;5072059;28;20043;-87
2024/01/30 09:16:09;;;;;;;14.27;6.03;;;;;;;-148.88;100.00;-17125.47;5073258;28;20027;-88
2024/01/30 09:18:34;;;;;;;14.77;9.68;;;;;;;-148.88;100.00;-17125.47;5073211;28;20028;-88
2024/01/30 09:21:00;;;;;;;9.98;5.38;;;;;;;-148.88;100.00;-17125.47;5073168;28;20479;-88
2024/01/30 09:23:28;;;;;;;14.73;6.35;;;;;;;-148.88;100.00;-17125.47;5071837;28;20047;-87
2024/01/30 09:25:54;;;;;;;13.32;9.55;;;;;;;-148.88;100.00;-17125.47;5073044;28;20475;-88
2024/01/30 09:28:19;;;;;;;11.10;5.88;;;;;;;-148.88;100.00;-17125.47;5073464;28;20035;-88
2024/01/30 09:30:44;;;;;;;10.95;5.53;;;;;;;-148.88;100.00;-17125.47;5073279;28;20363;-87
2024/01/30 09:33:10;;;;;;;10.63;6.10;;;;;;;-148.88;100.00;-17125.47;5072126;28;20433;-87
2024/01/30 09:35:36;;;;;;;14.63;10.80;;;;;;;-148.88;100.00;-17125.47;5073614;28;20040;-85
2024/01/30 09:38:02;;;;;;;17.45;6.47;;;;;;;-148.88;100.00;-17125.47;5072181;28;20024;-89
2024/01/30 09:40:28;;;;;;;12.35;6.35;;;;;;;-148.88;100.00;-17125.47;5073187;28;20445;-87
2024/01/30 09:42:54;;;;;;;8.93;4.97;;;;;;;-148.88;100.00;-17125.47;5073261;28;20028;-86
2024/01/30 09:45:23;;;;;;;9.57;5.15;;;;;;;-148.88;100.00;-17125.47;5073424;28;20021;-87
2024/01/30 09:47:48;;;;;;;11.82;6.75;;;;;;;-148.88;100.00;-17125.47;5072890;28;20037;-86
2024/01/30 09:50:15;;;;;;;10.93;4.40;;;;;;;-148.88;100.00;-17125.47;5072734;28;20032;-87
2024/01/30 09:52:40;;;;;;;7.75;4.50;;;;;;;-148.88;100.00;-17125.47;5073052;28;20052;-86
2024/01/30 09:55:07;;;;;;;9.90;7.65;;;;;;;-148.88;100.00;-17125.47;5072529;28;20048;-87
2024/01/30 09:57:33;;;;;;;10.50;7.75;;;;;;;-148.88;100.00;-17125.47;5072706;28;20024;-87
2024/01/30 09:59:58;;;;;;;9.27;4.43;;;;;;;-148.88;100.00;-17125.47;5072587;28;20025;-87
2024/01/30 10:02:23;;;;;;;9.30;5.97;;;;;;;-148.88;100.00;-17125.47;5072663;28;20017;-87
2024/01/30 10:04:50;;;;;;;14.15;8.52;;;;;;;-148.88;100.00;-17125.47;5072661;28;20020;-87
2024/01/30 10:07:16;;;;;;;9.43;6.55;;;;;;;-148.88;100.00;-17125.47;5072614;28;20028;-87
2024/01/30 10:09:41;;;;;;;8.60;6.07;;;;;;;-148.88;100.00;-17125.47;5072765;28;20029;-87
2024/01/30 10:12:08;;;;;;;10.27;6.47;;;;;;;-148.88;100.00;-17125.47;5072546;28;20029;-88
2024/01/30 10:14:34;;;;;;;9.90;6.38;;;;;;;-148.88;100.00;-17125.47;5072313;28;20528;-89
2024/01/30 10:16:59;;;;;;;6.97;4.00;;;;;;;-148.88;100.00;-17125.47;5072627;28;20550;-88
2024/01/30 10:19:24;;;;;;;9.65;6.72;;;;;;;-148.88;100.00;-17125.47;5073391;28;20024;-87
2024/01/30 10:21:50;;;;;;;10.60;6.50;;;;;;;-148.88;100.00;-17125.47;5073191;28;20383;-89
2024/01/30 10:24:16;;;;;;;8.25;6.25;;;;;;;-148.88;100.00;-17125.47;5073124;28;20483;-88
2024/01/30 10:26:44;;;;;;;8.95;5.68;;;;;;;-148.88;100.00;-17125.47;5074833;28;20046;-88
2024/01/30 10:29:09;;;;;;;9.55;4.43;;;;;;;-148.88;100.00;-17125.47;5075862;28;20025;-88
2024/01/30 10:31:35;;;;;;;8.88;5.80;;;;;;;-148.88;100.00;-17125.47;5074845;28;20112;-89
2024/01/30 10:34:00;;;;;;;9.77;6.57;;;;;;;-148.88;100.00;-17125.47;5075117;28;20032;-88
2024/01/30 10:36:29;;;;;;;11.90;5.03;;;;;;;-148.88;100.00;-17125.47;5075966;28;20029;-88
2024/01/30 10:38:59;;;;;;;9.13;6.53;;;;;;;-148.88;100.00;-17125.47;5075939;28;20020;-88
2024/01/30 10:41:26;;;;;;;9.60;6.10;;;;;;;-148.88;100.00;-17125.47;5075996;28;20037;-89
2024/01/30 10:44:03;;;;;;;9.25;5.97;;;;;;;-148.88;100.00;-17125.47;5075561;28;20028;-89
2024/01/30 10:46:31;;;;;;;10.10;6.30;;;;;;;-148.88;100.00;-17125.47;5076054;28;20028;-89
2024/01/30 10:49:01;;;;;;;9.82;6.18;;;;;;;-148.88;100.00;-17125.47;5075939;28;20075;-88
2024/01/30 10:51:27;;;;;;;7.45;5.35;;;;;;;-148.88;100.00;-17125.47;5074558;28;20024;-89
2024/01/30 10:53:53;;;;;;;8.80;6.00;;;;;;;-148.88;100.00;-17125.47;5075243;28;20242;-88